KMCN/MCN METAR and TAF weather

Enter ICAO airport designator
Station Type Date Time Source
KMCN METAR 2019/12/05 22:53 UTC NOAA

KMCN 052253Z 00000KT 10SM CLR 14/M03 A3013 RMK AO2 SLP203 T01391028


Station Type Date Time Source
KMCN Decoded METAR 2019/12/05 22:53 UTC NOAA

MIDDLE GEORGIA REGIONAL AIRPORT , GA, United States (KMCN) 32-41N 83-39W 109M
Dec 05, 2019 - 05:53 PM EST / 2019.12.05 2253 UTC
Wind: Calm:0
Visibility: 10 mile(s):0
Sky conditions: clear
Temperature: 57.0 F (13.9 C)
Dew Point: 27.0 F (-2.8 C)
Relative Humidity: 31%
Pressure (altimeter): 30.13 in. Hg (1020 hPa)
ob: KMCN 052253Z 00000KT 10SM CLR 14/M03 A3013 RMK AO2 SLP203 T01391028
cycle: 23

Station Type Date Time Source
KMCN TAF 2019/12/05 18:22 UTC NOAA

TAF KMCN 051720Z 0518/0618 34005KT P6SM FEW250
FM060100 00000KT P6SM SCT250
FM061400 15003KT P6SM SCT140 BKN250

Example: see airport list